23 minutes temu

TAF Port lotniczy Ottawa (CYOW)

Ważny od 23 stycznia 2022 19:00 do 23 stycznia 2022 21:00
Wydany 22 stycznia 2022 19:00

Czas
niedziela
19:00
niedziela
20:00
Kod
VFR
VFR
Pogoda
Niebo czyste
Niebo czyste
Widoczność
10 km
10 km
Sufit
-
-
Wiatr
290°
290°
290°
290°
Prędkość
5 kt
5 kt
Porywy
Temp / Sun

Oryginalny

TAF CYND 232340Z 2400/2402 29005KT P6SM SKC RMK NXT FCST BY 241400Z

TAF Port lotniczy Ottawa

Port lotniczy Ottawa jest duże lotnisko w Ottawa, Kanada. Lotnisko ma 3 runways: 4/22, 7/25 i 14/32

Port lotniczy Ottawa nie opublikował ostatnio obserwacji. Zamiast tego pokażemy Ci raport Ottawa / Gatineau Airport, który jest 24 km stąd. To zgłoszenie zostało sporządzone 22 stycznia 2022 19:00, czas lokalny. Ważny od 23 stycznia 2022 19:00 do 23 stycznia 2022 21:00, czas lokalny.

Prognoza

  • Od niedziela 19:00 do 21:00

    • Wiatr: 290° (zachódpółnoczachód), 5 kt
    • Widoczność: 10 km
    • Chmury: bez chmur.

Uwagi

  • NXT FCST BY 241400Z

Okres dzienny

Dziś słońce wschodzi o 07:31 i zachodzi o 16:58. Dotyczy to Port lotniczy Ottawa, uniwersalny okres światła dziennego może być inny. Różnica między czasem lokalnym a czasem UTC wynosi -5 godzina. Obecnie nie obowiązuje czas letni.